createdAt,value
2018-07-01T00:00:35.113Z,91.60
2018-07-01T00:03:03.425Z,91.90
2018-07-01T00:05:31.533Z,92.10
2018-07-01T00:07:59.903Z,92.40
2018-07-01T00:10:29.903Z,92.60
2018-07-01T00:12:59.230Z,92.90
2018-07-01T00:15:27.324Z,93.10
2018-07-01T00:17:55.361Z,93.50
2018-07-01T00:20:23.662Z,93.70
2018-07-01T00:25:20.093Z,94.40
2018-07-01T00:27:48.163Z,94.70
2018-07-01T00:30:16.433Z,95.20
2018-07-01T00:32:44.592Z,95.60
2018-07-01T00:35:12.713Z,96.10
2018-07-01T00:37:40.718Z,96.50
2018-07-01T00:40:08.949Z,96.80
2018-07-01T00:42:37.014Z,97.40
2018-07-01T00:47:32.822Z,98.20
2018-07-01T00:50:00.981Z,98.40
2018-07-01T00:52:28.931Z,98.90
2018-07-01T00:54:57.064Z,99.20
2018-07-01T00:57:25.177Z,99.60
2018-07-01T00:59:53.140Z,99.90
2018-07-01T01:02:21.872Z,99.90
2018-07-01T01:07:17.930Z,99.90
2018-07-01T01:09:45.871Z,99.90
2018-07-01T01:12:13.913Z,99.90
2018-07-01T01:14:41.967Z,99.90
2018-07-01T01:17:10.356Z,99.90
2018-07-01T01:19:38.536Z,99.90
2018-07-01T01:22:06.512Z,99.90
2018-07-01T01:24:35.288Z,99.90
2018-07-01T01:27:03.297Z,99.90
2018-07-01T01:29:31.593Z,99.90
2018-07-01T01:32:00.553Z,99.90
2018-07-01T01:36:56.782Z,99.90
2018-07-01T01:39:30.497Z,99.90
2018-07-01T01:42:03.592Z,99.90
2018-07-01T01:44:37.295Z,99.90
2018-07-01T01:47:10.861Z,99.90
2018-07-01T01:49:42.194Z,99.90
2018-07-01T01:52:14.691Z,99.90
2018-07-01T01:54:52.575Z,99.90
2018-07-01T01:57:26.062Z,99.90
2018-07-01T02:00:01.366Z,99.90
2018-07-01T02:02:33.704Z,99.90
2018-07-01T02:05:07.181Z,99.90
2018-07-01T02:07:45.510Z,99.90
2018-07-01T02:10:13.479Z,99.90
2018-07-01T02:12:41.620Z,99.90
2018-07-01T02:15:15.415Z,99.90
2018-07-01T02:17:45.900Z,99.90
2018-07-01T02:20:15.054Z,99.90
2018-07-01T02:22:47.513Z,99.90
2018-07-01T02:25:18.258Z,99.90
2018-07-01T02:27:46.633Z,99.90
2018-07-01T02:30:14.643Z,99.90
2018-07-01T02:32:42.780Z,99.90
2018-07-01T02:35:10.732Z,99.90
2018-07-01T02:37:38.958Z,99.90
2018-07-01T02:40:07.343Z,99.90
2018-07-01T02:42:35.598Z,99.90
2018-07-01T02:45:04.052Z,99.90
2018-07-01T02:47:39.672Z,99.90
2018-07-01T02:50:07.718Z,99.90
2018-07-01T02:52:36.312Z,99.90
2018-07-01T02:55:04.279Z,99.90
2018-07-01T02:57:32.646Z,99.90
2018-07-01T03:00:00.622Z,99.90
2018-07-01T03:02:28.926Z,99.90
2018-07-01T03:04:56.989Z,99.90
2018-07-01T03:07:24.975Z,99.90
2018-07-01T03:09:52.946Z,99.90
2018-07-01T03:12:20.972Z,99.90
2018-07-01T03:14:49.448Z,99.90
2018-07-01T03:17:19.420Z,99.90
2018-07-01T03:19:48.515Z,99.90
2018-07-01T03:22:16.544Z,99.90
2018-07-01T03:27:12.625Z,99.90
2018-07-01T03:29:41.121Z,99.90
2018-07-01T03:32:09.653Z,99.90
2018-07-01T03:34:38.250Z,99.90
2018-07-01T03:37:06.775Z,99.90
2018-07-01T03:39:34.822Z,99.90
2018-07-01T03:42:03.727Z,99.90
2018-07-01T03:44:31.780Z,99.90
2018-07-01T03:46:59.734Z,99.90
2018-07-01T03:51:55.654Z,99.90
2018-07-01T03:54:23.913Z,99.90
2018-07-01T03:56:51.936Z,99.90
2018-07-01T03:59:19.984Z,99.90
2018-07-01T04:01:47.973Z,99.90
2018-07-01T04:04:16.093Z,99.90
2018-07-01T04:06:44.803Z,99.90
2018-07-01T04:09:13.528Z,99.90
2018-07-01T04:11:41.928Z,99.90
2018-07-01T04:16:39.027Z,99.90
2018-07-01T04:21:34.922Z,99.90
2018-07-01T04:24:03.095Z,99.90
2018-07-01T04:26:31.136Z,99.90
2018-07-01T04:28:59.182Z,99.90
2018-07-01T04:31:27.644Z,99.90
2018-07-01T04:33:55.612Z,99.90
2018-07-01T04:36:24.123Z,99.90
2018-07-01T04:38:52.345Z,99.90
2018-07-01T04:41:20.315Z,99.90
2018-07-01T04:43:48.571Z,99.90
2018-07-01T04:46:16.748Z,99.90
2018-07-01T04:48:44.978Z,99.90
2018-07-01T04:51:12.933Z,99.90
2018-07-01T04:53:40.934Z,99.90
2018-07-01T04:56:08.895Z,99.90
2018-07-01T04:58:36.893Z,99.90
2018-07-01T05:01:05.347Z,99.90
2018-07-01T05:03:33.432Z,99.90
2018-07-01T05:08:29.803Z,99.90
2018-07-01T05:10:57.859Z,99.90
2018-07-01T05:13:25.867Z,99.90
2018-07-01T05:18:21.826Z,99.90
2018-07-01T05:20:49.787Z,99.90
2018-07-01T05:23:17.773Z,99.90
2018-07-01T05:25:45.787Z,99.90
2018-07-01T05:28:13.867Z,99.90
2018-07-01T05:30:42.034Z,99.90
2018-07-01T05:33:10.342Z,99.90
2018-07-01T05:35:38.495Z,99.90
2018-07-01T05:38:06.691Z,99.90
2018-07-01T05:40:34.893Z,99.90
2018-07-01T05:43:03.687Z,99.90
2018-07-01T05:45:31.655Z,99.90
2018-07-01T05:47:59.801Z,99.90
2018-07-01T05:50:27.979Z,99.70
2018-07-01T05:55:23.782Z,98.00
2018-07-01T05:57:51.967Z,98.00
2018-07-01T06:00:19.954Z,97.70
2018-07-01T06:02:47.950Z,95.80
2018-07-01T06:05:16.095Z,94.30
2018-07-01T06:07:44.124Z,93.30
2018-07-01T06:10:12.212Z,93.40
2018-07-01T06:12:40.347Z,93.70
2018-07-01T06:15:08.395Z,94.10
2018-07-01T06:17:36.598Z,94.40
2018-07-01T06:22:32.363Z,94.80
2018-07-01T06:25:00.531Z,94.80
2018-07-01T06:27:28.550Z,95.00
2018-07-01T06:29:56.634Z,94.80
2018-07-01T06:32:24.617Z,94.80
2018-07-01T06:34:52.593Z,94.50
2018-07-01T06:37:20.753Z,94.60
2018-07-01T06:39:48.815Z,94.50
2018-07-01T06:42:16.907Z,93.90
2018-07-01T06:44:45.213Z,93.60
2018-07-01T06:47:13.523Z,93.10
2018-07-01T06:49:41.530Z,92.50
2018-07-01T06:52:09.741Z,91.20
2018-07-01T06:54:37.723Z,91.30
2018-07-01T06:57:06.269Z,90.90
2018-07-01T07:02:02.560Z,89.00
2018-07-01T07:04:30.573Z,87.80
2018-07-01T07:06:58.714Z,87.40
2018-07-01T07:09:26.744Z,88.00
2018-07-01T07:11:54.729Z,88.80
2018-07-01T07:14:22.834Z,89.50
2018-07-01T07:16:51.158Z,90.00
2018-07-01T07:19:19.226Z,87.40
2018-07-01T07:24:14.996Z,88.00
2018-07-01T07:26:43.065Z,88.60
2018-07-01T07:29:11.543Z,89.50
2018-07-01T07:34:07.596Z,88.90
2018-07-01T07:36:35.680Z,88.60
2018-07-01T07:39:05.714Z,88.10
2018-07-01T07:41:33.734Z,85.20
2018-07-01T07:46:29.519Z,82.30
2018-07-01T07:48:57.466Z,81.30
2018-07-01T07:51:25.475Z,79.90
2018-07-01T07:53:53.558Z,79.60
2018-07-01T07:56:21.646Z,78.30
2018-07-01T07:58:49.916Z,77.40
2018-07-01T08:06:13.774Z,78.80
2018-07-01T08:08:42.483Z,78.70
2018-07-01T08:11:10.510Z,77.20
2018-07-01T08:13:38.847Z,75.70
2018-07-01T08:18:36.109Z,71.00
2018-07-01T08:21:04.502Z,70.90
2018-07-01T08:23:33.070Z,70.40
2018-07-01T08:26:01.168Z,69.90
2018-07-01T08:28:29.311Z,69.20
2018-07-01T08:30:57.329Z,69.30
2018-07-01T08:33:25.385Z,69.00
2018-07-01T08:35:53.470Z,66.30
2018-07-01T08:38:21.632Z,65.60
2018-07-01T08:40:49.610Z,65.00
2018-07-01T08:45:45.487Z,63.00
2018-07-01T08:48:20.148Z,61.40
2018-07-01T08:50:48.587Z,60.70
2018-07-01T08:53:16.913Z,59.90
2018-07-01T08:58:36.057Z,60.80
2018-07-01T09:01:04.184Z,61.00
2018-07-01T09:03:32.439Z,60.20
2018-07-01T09:06:00.486Z,60.70
2018-07-01T09:08:28.537Z,58.20
2018-07-01T09:10:56.525Z,57.70
2018-07-01T09:13:24.551Z,57.90
2018-07-01T09:15:52.538Z,57.40
2018-07-01T09:18:20.586Z,57.40
2018-07-01T09:23:16.811Z,56.70
2018-07-01T09:25:44.951Z,56.30
2018-07-01T09:28:15.776Z,55.60
2018-07-01T09:30:43.752Z,54.90
2018-07-01T09:33:12.031Z,54.10
2018-07-01T09:35:40.006Z,53.70
2018-07-01T09:38:07.971Z,53.80
2018-07-01T09:40:37.482Z,53.60
2018-07-01T09:43:06.058Z,54.10
2018-07-01T09:45:34.067Z,53.90
2018-07-01T09:48:02.057Z,53.90
2018-07-01T09:50:30.745Z,53.50
2018-07-01T09:52:58.691Z,53.80
2018-07-01T09:57:54.835Z,51.70
2018-07-01T10:00:22.944Z,50.30
2018-07-01T10:02:51.167Z,50.40
2018-07-01T10:05:19.151Z,49.50
2018-07-01T10:07:47.284Z,46.60
2018-07-01T10:10:15.415Z,45.60
2018-07-01T10:12:43.531Z,45.60
2018-07-01T10:15:11.582Z,45.60
2018-07-01T10:17:41.359Z,46.40
2018-07-01T10:20:09.503Z,45.80
2018-07-01T10:22:37.655Z,45.20
2018-07-01T10:27:33.462Z,43.60
2018-07-01T10:30:01.435Z,43.80
2018-07-01T10:32:29.810Z,44.30
2018-07-01T10:34:58.104Z,43.90
2018-07-01T10:37:26.761Z,44.70
2018-07-01T10:39:54.878Z,44.40
2018-07-01T10:42:23.003Z,44.80
2018-07-01T10:44:51.078Z,44.70
2018-07-01T10:47:20.008Z,45.30
2018-07-01T10:49:48.438Z,45.80
2018-07-01T10:54:44.491Z,46.00
2018-07-01T10:57:14.583Z,45.60
2018-07-01T10:59:42.707Z,45.00
2018-07-01T11:02:10.950Z,44.20
2018-07-01T11:04:38.914Z,44.50
2018-07-01T11:07:08.316Z,44.40
2018-07-01T11:09:36.336Z,44.10
2018-07-01T11:12:04.324Z,43.00
2018-07-01T11:14:32.296Z,42.40
2018-07-01T11:17:00.815Z,42.90
2018-07-01T11:19:28.818Z,42.10
2018-07-01T11:24:24.827Z,40.80
2018-07-01T11:26:55.581Z,41.00
2018-07-01T11:29:24.279Z,41.50
2018-07-01T11:31:52.295Z,41.20
2018-07-01T11:34:20.401Z,41.00
2018-07-01T11:36:48.410Z,41.00
2018-07-01T11:39:17.834Z,41.90
2018-07-01T11:41:45.783Z,42.40
2018-07-01T11:44:14.222Z,43.10
2018-07-01T11:46:42.247Z,42.50
2018-07-01T11:51:46.329Z,41.10
2018-07-01T11:54:15.622Z,41.90
2018-07-01T11:59:12.421Z,40.90
2018-07-01T12:04:08.257Z,40.20
2018-07-01T12:06:38.411Z,39.90
2018-07-01T12:09:08.083Z,38.70
2018-07-01T12:11:38.255Z,38.40
2018-07-01T12:14:07.940Z,38.50
2018-07-01T12:16:36.797Z,37.90
2018-07-01T12:19:07.634Z,37.10
2018-07-01T12:21:35.826Z,37.40
2018-07-01T12:24:04.036Z,37.30
2018-07-01T12:26:32.390Z,37.10
2018-07-01T12:29:00.680Z,36.60
2018-07-01T12:31:28.903Z,37.50
2018-07-01T12:33:57.342Z,36.80
2018-07-01T12:36:25.314Z,37.00
2018-07-01T12:38:54.058Z,36.80
2018-07-01T12:41:22.388Z,37.00
2018-07-01T12:46:18.484Z,37.40
2018-07-01T12:48:46.457Z,37.20
2018-07-01T12:51:14.520Z,37.30
2018-07-01T12:53:42.627Z,37.50
2018-07-01T12:56:10.846Z,37.60
2018-07-01T12:58:38.864Z,38.10
2018-07-01T13:01:07.054Z,38.10
2018-07-01T13:03:35.052Z,38.40
2018-07-01T13:06:03.119Z,38.80
2018-07-01T13:08:31.198Z,39.20
2018-07-01T13:13:28.562Z,38.60
2018-07-01T13:15:56.734Z,38.80
2018-07-01T13:18:26.614Z,39.10
2018-07-01T13:20:54.784Z,39.10
2018-07-01T13:23:23.013Z,39.00
2018-07-01T13:25:51.059Z,39.50
2018-07-01T13:28:19.127Z,40.40
2018-07-01T13:30:47.414Z,40.80
2018-07-01T13:35:43.588Z,41.70
2018-07-01T13:38:14.428Z,40.90
2018-07-01T13:40:42.518Z,40.90
2018-07-01T13:43:10.550Z,41.50
2018-07-01T13:45:38.715Z,42.10
2018-07-01T13:48:06.930Z,42.40
2018-07-01T13:50:35.027Z,42.70
2018-07-01T13:53:03.457Z,43.00
2018-07-01T13:55:31.535Z,43.30
2018-07-01T13:57:59.486Z,43.90
2018-07-01T14:00:27.579Z,44.00
2018-07-01T14:02:55.617Z,44.30
2018-07-01T14:05:23.636Z,44.40
2018-07-01T14:07:51.654Z,43.50
2018-07-01T14:10:20.100Z,43.00
2018-07-01T14:12:48.688Z,43.50
2018-07-01T14:15:16.663Z,43.30
2018-07-01T14:17:44.712Z,43.00
2018-07-01T14:20:12.677Z,43.20
2018-07-01T14:22:42.131Z,43.00
2018-07-01T14:25:10.723Z,43.20
2018-07-01T14:30:12.488Z,42.40
2018-07-01T14:32:40.682Z,42.30
2018-07-01T14:35:09.537Z,42.40
2018-07-01T14:37:38.365Z,42.40
2018-07-01T14:40:12.512Z,43.00
2018-07-01T14:42:40.723Z,42.80
2018-07-01T14:45:08.852Z,43.00
2018-07-01T14:47:37.063Z,43.00
2018-07-01T14:52:33.027Z,43.50
2018-07-01T14:55:01.175Z,44.00
2018-07-01T14:57:29.231Z,44.20
2018-07-01T15:02:25.269Z,44.50
2018-07-01T15:04:53.288Z,44.40
2018-07-01T15:09:49.307Z,44.90
2018-07-01T15:12:17.410Z,45.60
2018-07-01T15:14:45.580Z,44.90
2018-07-01T15:17:14.804Z,44.80
2018-07-01T15:19:42.987Z,44.90
2018-07-01T15:22:11.655Z,42.50
2018-07-01T15:24:40.624Z,41.40
2018-07-01T15:27:08.842Z,42.10
2018-07-01T15:29:37.592Z,42.20
2018-07-01T15:34:34.195Z,43.10
2018-07-01T15:39:30.907Z,41.40
2018-07-01T15:41:59.103Z,41.20
2018-07-01T15:44:27.342Z,41.00
2018-07-01T15:46:55.331Z,40.20
2018-07-01T15:51:52.935Z,38.90
2018-07-01T15:54:21.936Z,37.00
2018-07-01T15:56:50.618Z,34.20
2018-07-01T15:59:20.992Z,32.70
2018-07-01T16:01:49.833Z,31.70
2018-07-01T16:04:17.877Z,32.30
2018-07-01T16:06:46.315Z,30.70
2018-07-01T16:09:14.529Z,30.20
2018-07-01T16:11:42.630Z,30.00
2018-07-01T16:14:10.914Z,30.20
2018-07-01T16:16:39.263Z,29.80
2018-07-01T16:19:07.567Z,32.10
2018-07-01T16:21:36.139Z,34.70
2018-07-01T16:24:04.579Z,33.90
2018-07-01T16:26:38.039Z,32.30
2018-07-01T16:29:07.620Z,30.80
2018-07-01T16:31:35.662Z,28.80
2018-07-01T16:34:03.799Z,28.20
2018-07-01T16:36:31.771Z,28.40
2018-07-01T16:38:59.730Z,29.20
2018-07-01T16:41:29.143Z,29.90
2018-07-01T16:46:25.359Z,32.50
2018-07-01T16:49:02.376Z,33.90
2018-07-01T16:51:30.463Z,34.40
2018-07-01T16:53:59.883Z,33.00
2018-07-01T16:56:27.974Z,30.80
2018-07-01T16:58:56.144Z,31.70
2018-07-01T17:01:25.764Z,32.00
2018-07-01T17:03:54.187Z,30.70
2018-07-01T17:08:50.727Z,31.10
2018-07-01T17:11:18.727Z,29.10
2018-07-01T17:13:47.259Z,27.90
2018-07-01T17:16:15.273Z,27.20
2018-07-01T17:21:11.067Z,26.50
2018-07-01T17:23:39.212Z,26.60
2018-07-01T17:28:35.176Z,27.50
2018-07-01T17:31:09.434Z,27.70
2018-07-01T17:33:37.568Z,28.20
2018-07-01T17:36:05.617Z,28.00
2018-07-01T17:38:35.880Z,28.00
2018-07-01T17:41:04.205Z,27.60
2018-07-01T17:43:32.563Z,26.80
2018-07-01T17:46:00.839Z,26.90
2018-07-01T17:48:29.006Z,27.10
2018-07-01T17:50:58.021Z,27.40
2018-07-01T17:53:37.604Z,28.20
2018-07-01T17:56:06.828Z,28.10
2018-07-01T17:58:35.262Z,28.00
2018-07-01T18:01:03.299Z,27.70
2018-07-01T18:03:31.300Z,27.90
2018-07-01T18:06:00.082Z,27.70
2018-07-01T18:08:28.217Z,28.30
2018-07-01T18:10:57.032Z,28.60
2018-07-01T18:13:31.100Z,29.00
2018-07-01T18:15:59.705Z,29.20
2018-07-01T18:18:28.192Z,28.70
2018-07-01T18:20:56.258Z,29.00
2018-07-01T18:23:53.698Z,29.40
2018-07-01T18:28:30.185Z,29.20
2018-07-01T18:30:50.668Z,28.90
2018-07-01T18:33:18.982Z,29.10
2018-07-01T18:35:48.493Z,29.00
2018-07-01T18:38:16.644Z,29.00
2018-07-01T18:40:44.785Z,29.20
2018-07-01T18:43:13.002Z,29.80
2018-07-01T18:45:40.973Z,30.90
2018-07-01T18:48:09.532Z,33.40
2018-07-01T18:53:06.096Z,38.00
2018-07-01T18:55:34.094Z,39.70
2018-07-01T18:58:06.167Z,41.10
2018-07-01T19:00:34.173Z,42.60
2018-07-01T19:03:03.875Z,43.60
2018-07-01T19:05:34.181Z,44.10
2018-07-01T19:08:02.223Z,44.70
2018-07-01T19:10:30.980Z,45.40
2018-07-01T19:12:59.352Z,45.60
2018-07-01T19:26:23.098Z,47.60
2018-07-01T19:28:53.360Z,48.00
2018-07-01T19:31:22.712Z,48.20
2018-07-01T19:36:18.649Z,48.90
2018-07-01T19:38:47.093Z,48.80
2018-07-01T19:41:17.335Z,48.70
2018-07-01T19:43:45.361Z,49.10
2018-07-01T19:46:13.465Z,49.10
2018-07-01T19:48:41.639Z,49.30
2018-07-01T19:51:09.751Z,49.60
2018-07-01T19:53:37.864Z,49.60
2018-07-01T19:56:05.845Z,49.80
2018-07-01T19:58:33.920Z,49.60
2018-07-01T20:01:02.137Z,49.30
2018-07-01T20:03:31.523Z,49.70
2018-07-01T20:06:02.741Z,49.90
2018-07-01T20:08:37.880Z,50.10
2018-07-01T20:11:06.581Z,50.20
2018-07-01T20:13:35.434Z,50.40
2018-07-01T20:16:03.686Z,50.80
2018-07-01T20:18:31.691Z,50.80
2018-07-01T20:20:59.757Z,50.90
2018-07-01T20:23:28.328Z,51.10
2018-07-01T20:25:58.441Z,50.90
2018-07-01T20:28:26.636Z,51.30
2018-07-01T20:33:22.912Z,51.60
2018-07-01T20:35:52.167Z,51.80
2018-07-01T20:38:20.501Z,52.10
2018-07-01T20:40:48.738Z,52.30
2018-07-01T20:43:18.093Z,52.50
2018-07-01T20:45:46.643Z,52.70
2018-07-01T20:48:15.270Z,53.40
2018-07-01T20:50:43.344Z,53.70
2018-07-01T20:53:11.660Z,54.20
2018-07-01T20:55:39.823Z,54.70
2018-07-01T20:58:09.197Z,55.10
2018-07-01T21:00:37.925Z,55.90
2018-07-01T21:03:06.630Z,56.60
2018-07-01T21:05:34.983Z,57.10
2018-07-01T21:08:03.002Z,57.90
2018-07-01T21:10:30.984Z,58.50
2018-07-01T21:12:59.194Z,59.30
2018-07-01T21:15:27.333Z,59.70
2018-07-01T21:17:55.605Z,60.40
2018-07-01T21:20:23.710Z,61.10
2018-07-01T21:22:51.692Z,61.80
2018-07-01T21:25:20.114Z,62.70
2018-07-01T21:27:48.192Z,63.20
2018-07-01T21:30:17.970Z,64.20
2018-07-01T21:32:47.976Z,65.10
2018-07-01T21:37:45.153Z,68.50
2018-07-01T21:40:13.264Z,69.40
2018-07-01T21:45:09.719Z,72.30
2018-07-01T21:47:38.050Z,73.70
2018-07-01T21:50:07.188Z,75.00
2018-07-01T21:52:35.358Z,76.60
2018-07-01T21:55:03.431Z,78.20
2018-07-01T21:57:31.637Z,79.60
2018-07-01T22:00:06.197Z,80.90
2018-07-01T22:02:34.581Z,82.30
2018-07-01T22:05:04.666Z,83.60
2018-07-01T22:10:03.264Z,86.00
2018-07-01T22:12:42.962Z,87.60
2018-07-01T22:18:08.373Z,89.80
2018-07-01T22:20:36.434Z,90.50
2018-07-01T22:23:04.601Z,91.00
2018-07-01T22:25:32.667Z,91.40
2018-07-01T22:47:12.127Z,94.70
2018-07-01T22:49:40.124Z,95.10
2018-07-01T22:52:08.111Z,95.50
2018-07-01T22:54:36.286Z,96.10
2018-07-01T22:57:04.626Z,96.30
2018-07-01T22:59:32.594Z,96.50
2018-07-01T23:03:11.763Z,96.90
2018-07-01T23:05:39.890Z,97.30
2018-07-01T23:08:07.858Z,97.70
2018-07-01T23:10:35.927Z,98.10
2018-07-01T23:13:03.923Z,98.50
2018-07-01T23:15:32.672Z,98.70
2018-07-01T23:20:28.544Z,99.30
2018-07-01T23:25:25.043Z,99.90
2018-07-01T23:27:53.040Z,99.90
2018-07-01T23:30:21.121Z,99.90
2018-07-01T23:32:49.152Z,99.90
2018-07-01T23:35:17.445Z,99.90
2018-07-01T23:37:45.666Z,99.90
2018-07-01T23:40:13.760Z,99.90
2018-07-01T23:42:42.266Z,99.90
2018-07-01T23:45:13.035Z,99.90
2018-07-01T23:47:41.143Z,99.90
2018-07-01T23:50:09.516Z,99.90
2018-07-01T23:52:37.709Z,99.90
2018-07-01T23:55:06.528Z,99.90
2018-07-01T23:57:34.988Z,99.90
